PAED METAR and TAF weather

Enter ICAO airport designator
Station Type Date Time Source
PAED METAR 2020/01/23 08:09 UTC NOAA

PAED 230809Z 00000KT 10SM BKN007 OVC020 M10/M12 A2965 RMK SNE08 CIG 004 RWY16 SLP039


Station Type Date Time Source
PAED Decoded METAR 2020/01/23 08:09 UTC NOAA

Anchorage, Elmendorf Air Force Base, AK, United States (PAED) 61-15-11N 149-47-38W 59M
Jan 23, 2020 - 03:09 AM EST / 2020.01.23 0809 UTC
Wind: Calm:0
Visibility: 10 mile(s):0
Sky conditions: overcast
Temperature: 14 F (-10 C)
Dew Point: 10 F (-12 C)
Relative Humidity: 85%
Pressure (altimeter): 29.65 in. Hg (1004 hPa)
ob: PAED 230809Z 00000KT 10SM BKN007 OVC020 M10/M12 A2965 RMK SNE08 CIG 004 RWY16 SLP039
cycle: 8

Station Type Date Time Source
PAED TAF 2020/01/23 07:28 UTC NOAA

TAF
AMD PAED 230722Z 2307/2409 VRB06KT 8000 -SN BKN007 OVC020 620103 QNH2959INS
BECMG 2313/2314 03009KT 9999 NSW SCT010 BKN020 620203 QNH2948INS TXM10/2309Z TNM15/2319Z

Example: see airport list